Time,TemperatureF,DewpointF,PressureIn,WindDirection,WindDirectionDegrees,WindSpeedMPH,WindSpeedGustMPH,Humidity,HourlyPrecipIn,Conditions,Clouds,dailyrainin,SoftwareType,DateUTC
2013-07-12 00:01:00,69.8,69.7,29.90,WSW,247,0.0,1.9,100,0.00,,,0.00,Rainwise IP-100,2013-07-12 04:01:00,
2013-07-12 00:06:00,69.8,69.7,29.90,WSW,247,1.2,2.3,100,0.00,,,0.00,Rainwise IP-100,2013-07-12 04:06:00,
2013-07-12 00:11:00,69.7,69.7,29.90,WSW,247,1.4,1.6,100,0.00,,,0.00,Rainwise IP-100,2013-07-12 04:11:00,
2013-07-12 00:15:00,69.6,69.7,29.90,WSW,247,0.0,1.9,100,0.00,,,0.00,Rainwise IP-100,2013-07-12 04:15:00,
2013-07-12 00:20:00,69.5,69.7,29.90,WSW,247,0.0,0.0,100,0.00,,,0.00,Rainwise IP-100,2013-07-12 04:20:00,
2013-07-12 00:25:00,69.5,69.7,29.90,WSW,247,0.0,1.9,100,0.00,,,0.00,Rainwise IP-100,2013-07-12 04:25:00,
2013-07-12 00:30:00,69.4,69.3,29.90,WSW,247,0.0,0.0,100,0.00,,,0.00,Rainwise IP-100,2013-07-12 04:30:00,
2013-07-12 00:35:00,69.3,69.3,29.90,WSW,247,0.0,0.0,100,0.00,,,0.00,Rainwise IP-100,2013-07-12 04:35:00,
2013-07-12 00:40:00,69.3,69.3,29.90,WSW,247,0.0,0.0,100,0.00,,,0.00,Rainwise IP-100,2013-07-12 04:40:00,
2013-07-12 00:45:00,69.2,69.3,29.90,WSW,247,0.0,0.0,100,0.00,,,0.00,Rainwise IP-100,2013-07-12 04:45:00,
2013-07-12 00:50:00,69.1,69.0,29.90,WSW,247,0.0,0.0,100,0.00,,,0.00,Rainwise IP-100,2013-07-12 04:50:00,
2013-07-12 00:55:00,69.1,69.0,29.90,WSW,247,0.0,0.0,100,0.00,,,0.00,Rainwise IP-100,2013-07-12 04:55:00,
2013-07-12 01:00:00,68.9,69.0,29.90,WSW,247,0.0,0.0,100,0.00,,,0.00,Rainwise IP-100,2013-07-12 05:00:00,
2013-07-12 01:05:00,68.7,68.5,29.90,WSW,247,0.0,0.0,100,0.00,,,0.00,Rainwise IP-100,2013-07-12 05:05:00,
2013-07-12 01:10:00,68.5,68.5,29.90,WSW,247,0.0,0.0,100,0.00,,,0.00,Rainwise IP-100,2013-07-12 05:10:00,
2013-07-12 01:15:00,68.3,68.5,29.90,WSW,247,0.0,0.0,100,0.00,,,0.00,Rainwise IP-100,2013-07-12 05:15:00,
2013-07-12 01:20:00,68.2,68.0,29.90,WSW,247,0.0,0.0,100,0.00,,,0.00,Rainwise IP-100,2013-07-12 05:20:00,
2013-07-12 01:25:00,68.1,68.0,29.90,WSW,247,0.0,0.0,100,0.00,,,0.00,Rainwise IP-100,2013-07-12 05:25:00,
2013-07-12 01:30:00,68.0,68.0,29.90,WSW,247,0.0,0.0,100,0.00,,,0.00,Rainwise IP-100,2013-07-12 05:30:00,
2013-07-12 01:35:00,68.0,68.0,29.91,WSW,247,0.0,0.0,100,0.00,,,0.00,Rainwise IP-100,2013-07-12 05:35:00,
2013-07-12 01:41:00,67.9,68.0,29.91,WSW,247,0.0,0.0,100,0.00,,,0.00,Rainwise IP-100,2013-07-12 05:41:00,
2013-07-12 01:46:00,67.8,68.0,29.91,WSW,247,0.0,0.0,100,0.00,,,0.00,Rainwise IP-100,2013-07-12 05:46:00,
2013-07-12 01:51:00,67.6,67.5,29.91,WSW,247,0.0,0.0,100,0.00,,,0.00,Rainwise IP-100,2013-07-12 05:51:00,
2013-07-12 01:56:00,67.6,67.5,29.91,WSW,247,0.0,0.0,100,0.00,,,0.00,Rainwise IP-100,2013-07-12 05:56:00,
2013-07-12 02:01:00,67.6,67.5,29.91,WSW,247,0.0,0.0,100,0.00,,,0.00,Rainwise IP-100,2013-07-12 06:01:00,
2013-07-12 02:06:00,67.6,67.5,29.91,WSW,247,0.0,0.0,100,0.00,,,0.00,Rainwise IP-100,2013-07-12 06:06:00,
2013-07-12 02:11:00,67.5,67.5,29.92,WSW,247,0.0,0.0,100,0.00,,,0.00,Rainwise IP-100,2013-07-12 06:11:00,
2013-07-12 02:16:00,67.5,67.5,29.92,WSW,247,0.0,0.0,100,0.00,,,0.00,Rainwise IP-100,2013-07-12 06:16:00,
2013-07-12 02:21:00,67.5,67.5,29.92,WSW,247,0.0,0.0,100,0.00,,,0.00,Rainwise IP-100,2013-07-12 06:21:00,
2013-07-12 02:26:00,67.6,67.5,29.92,NW,315,1.6,1.6,100,0.00,,,0.00,Rainwise IP-100,2013-07-12 06:26:00,
2013-07-12 02:31:00,67.8,68.0,29.92,NW,315,0.0,1.9,100,0.00,,,0.00,Rainwise IP-100,2013-07-12 06:31:00,
2013-07-12 02:36:00,68.0,68.0,29.92,NW,315,0.0,1.2,100,0.00,,,0.00,Rainwise IP-100,2013-07-12 06:36:00,
2013-07-12 02:41:00,68.0,68.0,29.92,NW,315,1.6,2.3,100,0.00,,,0.00,Rainwise IP-100,2013-07-12 06:41:00,
2013-07-12 02:46:00,68.4,68.5,29.92,NNW,337,0.0,2.6,100,0.00,,,0.00,Rainwise IP-100,2013-07-12 06:46:00,
2013-07-12 02:51:00,68.7,68.5,29.92,NNW,337,0.0,3.5,100,0.00,,,0.00,Rainwise IP-100,2013-07-12 06:51:00,
2013-07-12 02:56:00,68.9,69.0,29.92,North,360,0.0,2.6,100,0.00,,,0.00,Rainwise IP-100,2013-07-12 06:56:00,
2013-07-12 03:01:00,69.2,69.3,29.92,NNE,22,2.1,2.1,100,0.00,,,0.00,Rainwise IP-100,2013-07-12 07:01:00,
2013-07-12 03:06:00,69.4,69.3,29.93,NE,45,0.0,3.5,100,0.00,,,0.00,Rainwise IP-100,2013-07-12 07:06:00,
2013-07-12 03:11:00,69.5,69.7,29.93,NNE,22,0.0,2.1,100,0.00,,,0.00,Rainwise IP-100,2013-07-12 07:11:00,
2013-07-12 03:16:00,69.5,69.7,29.93,North,360,0.0,1.6,100,0.00,,,0.00,Rainwise IP-100,2013-07-12 07:16:00,
2013-07-12 03:21:00,69.7,69.7,29.93,North,360,0.0,2.6,100,0.00,,,0.00,Rainwise IP-100,2013-07-12 07:21:00,
2013-07-12 03:26:00,70.0,70.0,29.93,ENE,67,0.0,3.0,100,0.00,,,0.00,Rainwise IP-100,2013-07-12 07:26:00,
2013-07-12 03:31:00,70.3,70.5,29.94,ENE,67,0.0,0.0,100,0.00,,,0.00,Rainwise IP-100,2013-07-12 07:31:00,
2013-07-12 03:36:00,70.4,70.5,29.93,ENE,67,0.0,1.2,100,0.00,,,0.00,Rainwise IP-100,2013-07-12 07:36:00,
2013-07-12 03:41:00,70.5,70.5,29.93,North,360,2.1,3.3,100,0.00,,,0.00,Rainwise IP-100,2013-07-12 07:41:00,
2013-07-12 03:46:00,70.7,70.5,29.93,NW,315,0.0,3.7,100,0.00,,,0.00,Rainwise IP-100,2013-07-12 07:46:00,
2013-07-12 03:51:00,70.8,71.0,29.94,ENE,67,0.0,5.4,100,0.00,,,0.00,Rainwise IP-100,2013-07-12 07:51:00,
2013-07-12 03:56:00,71.0,71.0,29.94,ENE,67,1.9,3.7,100,0.00,,,0.00,Rainwise IP-100,2013-07-12 07:56:00,
2013-07-12 04:01:00,71.2,71.3,29.94,NW,315,1.9,8.2,100,0.00,,,0.00,Rainwise IP-100,2013-07-12 08:01:00,
2013-07-12 04:06:00,71.3,71.3,29.94,NNW,337,0.0,6.5,100,0.00,,,0.00,Rainwise IP-100,2013-07-12 08:06:00,
2013-07-12 04:11:00,71.4,71.3,29.95,NNE,22,2.1,6.5,100,0.00,,,0.00,Rainwise IP-100,2013-07-12 08:11:00,
2013-07-12 04:16:00,71.4,71.3,29.95,NE,45,1.6,11.4,100,0.00,,,0.00,Rainwise IP-100,2013-07-12 08:16:00,
2013-07-12 04:21:00,71.3,71.3,29.95,North,360,3.0,7.0,100,0.00,,,0.00,Rainwise IP-100,2013-07-12 08:21:00,
2013-07-12 04:26:00,71.3,71.3,29.95,NNE,22,1.2,4.9,100,0.00,,,0.00,Rainwise IP-100,2013-07-12 08:26:00,
2013-07-12 04:31:00,71.2,71.3,29.95,NW,315,0.0,5.1,100,0.00,,,0.00,Rainwise IP-100,2013-07-12 08:31:00,
2013-07-12 04:36:00,71.1,71.0,29.95,North,360,2.6,6.5,100,0.00,,,0.00,Rainwise IP-100,2013-07-12 08:36:00,
2013-07-12 04:41:00,70.9,71.0,29.95,NNW,337,1.9,3.5,100,0.00,,,0.00,Rainwise IP-100,2013-07-12 08:41:00,
2013-07-12 04:46:00,70.7,70.5,29.96,North,360,3.5,5.8,100,0.00,,,0.00,Rainwise IP-100,2013-07-12 08:46:00,
2013-07-12 04:51:00,70.5,70.5,29.96,North,360,7.2,7.2,100,0.00,,,0.00,Rainwise IP-100,2013-07-12 08:51:00,
2013-07-12 04:56:00,70.3,70.5,29.96,NNW,337,2.1,7.9,100,0.00,,,0.00,Rainwise IP-100,2013-07-12 08:56:00,
2013-07-12 05:01:00,70.2,70.0,29.96,NNE,22,0.0,4.7,100,0.00,,,0.00,Rainwise IP-100,2013-07-12 09:01:00,
2013-07-12 05:06:00,70.1,70.0,29.96,NE,45,2.6,9.8,100,0.00,,,0.00,Rainwise IP-100,2013-07-12 09:06:00,
2013-07-12 05:11:00,70.0,70.0,29.96,ENE,67,1.6,8.6,100,0.00,,,0.00,Rainwise IP-100,2013-07-12 09:11:00,
2013-07-12 05:16:00,69.9,70.0,29.96,NNW,337,1.4,5.8,100,0.00,,,0.00,Rainwise IP-100,2013-07-12 09:16:00,
2013-07-12 05:21:00,69.8,69.7,29.96,NNW,337,2.1,6.1,100,0.00,,,0.00,Rainwise IP-100,2013-07-12 09:21:00,
2013-07-12 05:26:00,69.7,69.7,29.97,NNW,337,0.0,5.6,100,0.00,,,0.00,Rainwise IP-100,2013-07-12 09:26:00,
2013-07-12 05:31:00,69.6,69.7,29.97,North,360,1.4,7.7,100,0.00,,,0.00,Rainwise IP-100,2013-07-12 09:31:00,
2013-07-12 05:36:00,69.7,69.7,29.97,WNW,292,4.0,4.0,100,0.00,,,0.00,Rainwise IP-100,2013-07-12 09:36:00,
2013-07-12 05:41:00,69.7,69.7,29.98,NNE,22,0.0,6.1,100,0.00,,,0.00,Rainwise IP-100,2013-07-12 09:41:00,
2013-07-12 05:46:00,69.8,69.7,29.97,ENE,67,0.0,7.2,100,0.00,,,0.00,Rainwise IP-100,2013-07-12 09:46:00,
2013-07-12 05:51:00,69.8,69.7,29.97,NNW,337,2.3,9.1,100,0.00,,,0.00,Rainwise IP-100,2013-07-12 09:51:00,
2013-07-12 05:56:00,69.8,69.7,29.97,NNE,22,0.0,4.2,100,0.00,,,0.00,Rainwise IP-100,2013-07-12 09:56:00,
2013-07-12 06:01:00,69.9,70.0,29.98,North,360,2.6,4.7,100,0.00,,,0.00,Rainwise IP-100,2013-07-12 10:01:00,
2013-07-12 06:06:00,70.0,70.0,29.98,North,360,1.2,5.8,100,0.00,,,0.00,Rainwise IP-100,2013-07-12 10:06:00,
2013-07-12 06:11:00,70.2,70.0,29.98,NE,45,0.0,4.2,100,0.00,,,0.00,Rainwise IP-100,2013-07-12 10:11:00,
2013-07-12 06:16:00,70.3,70.5,29.99,NE,45,1.9,4.9,100,0.00,,,0.00,Rainwise IP-100,2013-07-12 10:16:00,
2013-07-12 06:21:00,70.3,70.5,29.98,NNW,337,5.4,5.4,100,0.00,,,0.00,Rainwise IP-100,2013-07-12 10:21:00,
2013-07-12 06:26:00,70.3,70.5,29.98,NNW,337,0.0,8.6,100,0.00,,,0.00,Rainwise IP-100,2013-07-12 10:26:00,
2013-07-12 06:31:00,70.3,70.5,29.98,NW,315,0.0,3.5,100,0.00,,,0.00,Rainwise IP-100,2013-07-12 10:31:00,
2013-07-12 06:36:00,70.4,70.5,29.98,North,360,2.3,6.8,100,0.00,,,0.00,Rainwise IP-100,2013-07-12 10:36:00,
2013-07-12 06:41:00,70.4,70.5,29.98,NNW,337,3.0,3.7,100,0.00,,,0.00,Rainwise IP-100,2013-07-12 10:41:00,
2013-07-12 06:46:00,70.4,70.5,29.99,NNE,22,1.6,5.1,100,0.00,,,0.00,Rainwise IP-100,2013-07-12 10:46:00,
2013-07-12 06:51:00,70.4,70.5,29.99,NNE,22,1.4,6.8,100,0.00,,,0.00,Rainwise IP-100,2013-07-12 10:51:00,
2013-07-12 06:56:00,70.3,70.5,29.99,NNW,337,3.0,6.3,100,0.00,,,0.00,Rainwise IP-100,2013-07-12 10:56:00,
2013-07-12 07:01:00,70.3,70.5,30.00,ENE,67,0.0,7.0,100,0.00,,,0.00,Rainwise IP-100,2013-07-12 11:01:00,
2013-07-12 07:06:00,70.4,70.5,30.00,NNE,22,1.2,9.8,100,0.00,,,0.00,Rainwise IP-100,2013-07-12 11:06:00,
2013-07-12 07:11:00,70.4,70.5,30.00,WNW,292,1.9,8.4,100,0.00,,,0.00,Rainwise IP-100,2013-07-12 11:11:00,
2013-07-12 07:16:00,70.4,70.5,30.00,NE,45,0.0,4.2,100,0.00,,,0.00,Rainwise IP-100,2013-07-12 11:16:00,
2013-07-12 07:21:00,70.6,70.5,30.01,NE,45,1.6,3.7,100,0.00,,,0.00,Rainwise IP-100,2013-07-12 11:21:00,
2013-07-12 07:26:00,70.7,70.5,30.01,ENE,67,0.0,2.8,100,0.00,,,0.00,Rainwise IP-100,2013-07-12 11:26:00,
2013-07-12 07:31:00,70.7,70.5,30.01,ENE,67,1.2,3.3,100,0.00,,,0.00,Rainwise IP-100,2013-07-12 11:31:00,
2013-07-12 07:36:00,70.7,70.5,30.00,ENE,67,2.6,6.8,100,0.00,,,0.00,Rainwise IP-100,2013-07-12 11:36:00,
2013-07-12 07:41:00,70.8,71.0,30.01,NNE,22,0.0,5.4,100,0.00,,,0.00,Rainwise IP-100,2013-07-12 11:41:00,
2013-07-12 07:46:00,71.0,71.0,30.01,North,360,0.0,4.4,100,0.00,,,0.00,Rainwise IP-100,2013-07-12 11:46:00,
2013-07-12 07:51:00,71.1,71.0,30.01,NNE,22,1.2,4.7,100,0.00,,,0.00,Rainwise IP-100,2013-07-12 11:51:00,
2013-07-12 07:56:00,70.9,71.0,30.01,North,360,2.8,4.9,100,0.00,,,0.00,Rainwise IP-100,2013-07-12 11:56:00,
2013-07-12 08:01:00,70.8,71.0,30.02,NW,315,0.0,4.7,100,0.00,,,0.00,Rainwise IP-100,2013-07-12 12:01:00,
2013-07-12 08:06:00,70.9,71.0,30.02,NNW,337,2.3,6.8,100,0.00,,,0.00,Rainwise IP-100,2013-07-12 12:06:00,
2013-07-12 08:11:00,71.0,71.0,30.02,North,360,0.0,6.5,100,0.00,,,0.00,Rainwise IP-100,2013-07-12 12:11:00,
2013-07-12 08:16:00,71.1,71.0,30.02,NNW,337,2.6,4.4,100,0.00,,,0.00,Rainwise IP-100,2013-07-12 12:16:00,
2013-07-12 08:21:00,71.6,71.7,30.02,NNE,22,1.6,5.4,100,0.00,,,0.00,Rainwise IP-100,2013-07-12 12:21:00,
2013-07-12 08:25:00,71.8,71.7,30.02,North,360,1.6,5.4,100,0.00,,,0.00,Rainwise IP-100,2013-07-12 12:25:00,
2013-07-12 08:30:00,72.2,72.3,30.02,North,360,0.0,5.6,100,0.00,,,0.00,Rainwise IP-100,2013-07-12 12:30:00,
2013-07-12 08:35:00,72.4,72.3,30.02,NNE,22,2.1,5.4,100,0.00,,,0.00,Rainwise IP-100,2013-07-12 12:35:00,
2013-07-12 08:40:00,72.3,72.0,30.02,NNW,337,0.0,4.2,99,0.00,,,0.00,Rainwise IP-100,2013-07-12 12:40:00,
2013-07-12 08:45:00,72.2,72.0,30.02,North,360,0.0,8.9,99,0.00,,,0.00,Rainwise IP-100,2013-07-12 12:45:00,
2013-07-12 08:50:00,72.0,71.3,30.02,NE,45,3.3,7.9,98,0.00,,,0.00,Rainwise IP-100,2013-07-12 12:50:00,
2013-07-12 08:55:00,71.9,71.3,30.02,NNE,22,1.6,5.8,98,0.00,,,0.00,Rainwise IP-100,2013-07-12 12:55:00,
2013-07-12 09:00:00,71.9,71.3,30.03,NNW,337,4.0,7.2,98,0.00,,,0.00,Rainwise IP-100,2013-07-12 13:00:00,
2013-07-12 09:05:00,71.7,71.0,30.03,SSE,157,1.6,6.8,97,0.00,,,0.00,Rainwise IP-100,2013-07-12 13:05:00,
2013-07-12 09:10:00,71.6,71.0,30.03,NNW,337,3.3,8.2,97,0.00,,,0.00,Rainwise IP-100,2013-07-12 13:10:00,
2013-07-12 09:15:00,71.7,70.5,30.03,North,360,1.9,6.3,96,0.00,,,0.00,Rainwise IP-100,2013-07-12 13:15:00,
2013-07-12 09:20:00,71.8,70.0,30.03,NW,315,2.8,8.9,95,0.00,,,0.00,Rainwise IP-100,2013-07-12 13:20:00,
2013-07-12 09:25:00,71.8,70.0,30.03,North,360,1.9,6.5,95,0.00,,,0.00,Rainwise IP-100,2013-07-12 13:25:00,
2013-07-12 09:30:00,71.8,69.7,30.03,NNW,337,5.4,6.5,94,0.00,,,0.00,Rainwise IP-100,2013-07-12 13:30:00,
2013-07-12 09:35:00,71.7,69.7,30.03,NNE,22,1.2,7.5,93,0.00,,,0.00,Rainwise IP-100,2013-07-12 13:35:00,
2013-07-12 09:40:00,71.7,69.7,30.03,NE,45,2.8,6.3,93,0.00,,,0.00,Rainwise IP-100,2013-07-12 13:40:00,
2013-07-12 09:45:00,71.7,69.3,30.03,North,360,2.1,6.1,92,0.00,,,0.00,Rainwise IP-100,2013-07-12 13:45:00,
2013-07-12 09:50:00,72.0,69.7,30.04,NNW,337,4.0,7.7,92,0.00,,,0.00,Rainwise IP-100,2013-07-12 13:50:00,
2013-07-12 09:55:00,72.6,70.0,30.03,NNW,337,0.0,7.2,91,0.00,,,0.00,Rainwise IP-100,2013-07-12 13:55:00,
2013-07-12 10:00:00,73.2,70.5,30.04,NNE,22,3.5,6.5,90,0.00,,,0.00,Rainwise IP-100,2013-07-12 14:00:00,
2013-07-12 10:05:00,73.7,70.5,30.04,ENE,67,2.3,7.7,89,0.00,,,0.00,Rainwise IP-100,2013-07-12 14:05:00,
2013-07-12 10:10:00,73.9,70.5,30.04,North,360,1.2,7.7,88,0.00,,,0.00,Rainwise IP-100,2013-07-12 14:10:00,
2013-07-12 10:15:00,74.0,70.0,30.04,North,360,2.3,6.1,87,0.00,,,0.00,Rainwise IP-100,2013-07-12 14:15:00,
2013-07-12 10:20:00,73.8,69.7,30.04,North,360,5.4,10.5,87,0.00,,,0.00,Rainwise IP-100,2013-07-12 14:20:00,
2013-07-12 10:25:00,73.7,69.7,30.05,NW,315,5.6,7.5,87,0.00,,,0.00,Rainwise IP-100,2013-07-12 14:25:00,
2013-07-12 10:30:00,73.9,70.0,30.05,West,270,2.8,11.2,87,0.00,,,0.00,Rainwise IP-100,2013-07-12 14:30:00,
2013-07-12 10:35:00,74.1,70.5,30.06,ENE,67,1.4,8.9,88,0.00,,,0.00,Rainwise IP-100,2013-07-12 14:35:00,
2013-07-12 10:40:00,74.5,71.0,30.06,NNW,337,0.0,6.3,87,0.00,,,0.00,Rainwise IP-100,2013-07-12 14:40:00,
2013-07-12 10:45:00,75.1,71.0,30.06,NNE,22,1.4,3.7,86,0.00,,,0.00,Rainwise IP-100,2013-07-12 14:45:00,
2013-07-12 10:50:00,75.2,70.5,30.06,North,360,2.6,6.5,85,0.00,,,0.00,Rainwise IP-100,2013-07-12 14:50:00,
2013-07-12 10:55:00,75.3,71.0,30.06,ENE,67,1.2,8.2,85,0.00,,,0.00,Rainwise IP-100,2013-07-12 14:55:00,
2013-07-12 11:00:00,75.5,70.5,30.06,North,360,5.1,8.9,84,0.00,,,0.00,Rainwise IP-100,2013-07-12 15:00:00,
2013-07-12 11:02:00,75.5,70.5,30.06,ENE,67,3.3,10.3,84,0.00,,,0.00,Rainwise IP-100,2013-07-12 15:02:00,
2013-07-12 11:07:00,75.3,70.5,30.06,ENE,67,3.3,6.8,84,0.00,,,0.00,Rainwise IP-100,2013-07-12 15:07:00,
2013-07-12 11:12:00,75.1,70.0,30.06,NNE,22,5.1,9.8,84,0.00,,,0.00,Rainwise IP-100,2013-07-12 15:12:00,
2013-07-12 11:17:00,75.2,70.0,30.06,NW,315,3.0,11.9,84,0.00,,,0.00,Rainwise IP-100,2013-07-12 15:17:00,
2013-07-12 11:22:00,75.3,70.5,30.06,ENE,67,1.4,7.9,84,0.00,,,0.00,Rainwise IP-100,2013-07-12 15:22:00,
2013-07-12 11:27:00,75.0,70.0,30.06,NNE,22,1.2,8.2,84,0.00,,,0.00,Rainwise IP-100,2013-07-12 15:27:00,
2013-07-12 11:32:00,74.6,70.0,30.06,NNE,22,2.1,7.9,85,0.00,,,0.00,Rainwise IP-100,2013-07-12 15:32:00,
2013-07-12 11:37:00,74.5,70.0,30.06,NNE,22,1.4,7.7,85,0.00,,,0.00,Rainwise IP-100,2013-07-12 15:37:00,
2013-07-12 11:42:00,74.6,70.0,30.06,WNW,292,3.5,7.5,85,0.00,,,0.00,Rainwise IP-100,2013-07-12 15:42:00,
2013-07-12 11:47:00,74.5,70.0,30.06,NNW,337,4.2,7.9,85,0.00,,,0.00,Rainwise IP-100,2013-07-12 15:47:00,
2013-07-12 11:52:00,74.4,69.7,30.07,NNE,22,2.1,8.9,85,0.00,,,0.00,Rainwise IP-100,2013-07-12 15:52:00,
2013-07-12 11:57:00,74.6,70.0,30.07,WNW,292,6.1,9.8,85,0.00,,,0.00,Rainwise IP-100,2013-07-12 15:57:00,
2013-07-12 12:02:00,74.9,70.0,30.07,ENE,67,4.0,11.4,84,0.00,,,0.00,Rainwise IP-100,2013-07-12 16:02:00,
2013-07-12 12:07:00,75.0,69.7,30.06,NNW,337,8.9,16.3,83,0.00,,,0.00,Rainwise IP-100,2013-07-12 16:07:00,
2013-07-12 12:12:00,74.7,69.3,30.07,NNW,337,4.7,11.4,83,0.00,,,0.00,Rainwise IP-100,2013-07-12 16:12:00,
2013-07-12 12:17:00,74.8,69.3,30.07,North,360,8.9,8.9,83,0.00,,,0.00,Rainwise IP-100,2013-07-12 16:17:00,
2013-07-12 12:22:00,75.6,70.0,30.06,WNW,292,2.6,15.2,83,0.00,,,0.00,Rainwise IP-100,2013-07-12 16:22:00,
2013-07-12 12:27:00,75.7,69.7,30.06,NNE,22,3.0,10.5,82,0.00,,,0.00,Rainwise IP-100,2013-07-12 16:27:00,
2013-07-12 12:32:00,75.4,69.7,30.06,NNE,22,3.0,8.6,82,0.00,,,0.00,Rainwise IP-100,2013-07-12 16:32:00,
2013-07-12 12:37:00,75.5,69.7,30.07,ENE,67,4.0,8.9,82,0.00,,,0.00,Rainwise IP-100,2013-07-12 16:37:00,
2013-07-12 12:42:00,75.6,69.7,30.06,NNW,337,8.4,8.4,82,0.00,,,0.00,Rainwise IP-100,2013-07-12 16:42:00,
2013-07-12 12:47:00,76.1,70.0,30.06,NNE,22,6.3,18.2,82,0.00,,,0.00,Rainwise IP-100,2013-07-12 16:47:00,
2013-07-12 12:52:00,76.1,69.7,30.06,SSE,157,4.0,17.0,81,0.00,,,0.00,Rainwise IP-100,2013-07-12 16:52:00,
2013-07-12 12:57:00,76.2,69.7,30.06,North,360,4.2,9.1,80,0.00,,,0.00,Rainwise IP-100,2013-07-12 16:57:00,
2013-07-12 13:02:00,75.9,69.3,30.06,NNW,337,5.6,11.0,80,0.00,,,0.00,Rainwise IP-100,2013-07-12 17:02:00,
2013-07-12 13:07:00,75.5,69.3,30.06,North,360,5.1,12.1,81,0.00,,,0.00,Rainwise IP-100,2013-07-12 17:07:00,
2013-07-12 13:12:00,75.7,69.3,30.06,ENE,67,1.9,10.5,81,0.00,,,0.00,Rainwise IP-100,2013-07-12 17:12:00,
2013-07-12 13:17:00,75.6,69.3,30.06,NNE,22,2.3,13.3,81,0.00,,,0.00,Rainwise IP-100,2013-07-12 17:17:00,
2013-07-12 13:22:00,75.0,69.0,30.06,NW,315,1.6,14.0,81,0.00,,,0.00,Rainwise IP-100,2013-07-12 17:22:00,
2013-07-12 13:27:00,74.9,69.0,30.06,North,360,4.7,10.5,81,0.00,,,0.00,Rainwise IP-100,2013-07-12 17:27:00,
2013-07-12 13:32:00,74.9,69.3,30.07,North,360,2.6,7.5,82,0.00,,,0.00,Rainwise IP-100,2013-07-12 17:32:00,
2013-07-12 13:37:00,74.6,69.3,30.06,NNE,22,4.9,9.3,83,0.00,,,0.00,Rainwise IP-100,2013-07-12 17:37:00,
2013-07-12 13:42:00,74.2,69.0,30.07,North,360,2.1,9.1,83,0.00,,,0.00,Rainwise IP-100,2013-07-12 17:42:00,
2013-07-12 13:47:00,74.0,69.0,30.06,NNE,22,2.3,6.1,83,0.00,,,0.00,Rainwise IP-100,2013-07-12 17:47:00,
2013-07-12 13:52:00,74.2,69.0,30.07,ENE,67,0.0,7.0,83,0.00,,,0.00,Rainwise IP-100,2013-07-12 17:52:00,
2013-07-12 13:57:00,73.9,69.0,30.07,ENE,67,0.0,8.2,83,0.00,,,0.00,Rainwise IP-100,2013-07-12 17:57:00,
2013-07-12 14:02:00,73.7,68.5,30.07,North,360,1.9,8.6,83,0.00,,,0.00,Rainwise IP-100,2013-07-12 18:02:00,
2013-07-12 14:07:00,73.9,69.0,30.07,North,360,2.8,5.4,84,0.00,,,0.00,Rainwise IP-100,2013-07-12 18:07:00,
2013-07-12 14:12:00,74.1,69.0,30.06,North,360,7.2,7.2,84,0.00,,,0.00,Rainwise IP-100,2013-07-12 18:12:00,
2013-07-12 14:17:00,73.7,68.5,30.07,NNE,22,3.3,17.7,83,0.00,,,0.00,Rainwise IP-100,2013-07-12 18:17:00,
2013-07-12 14:22:00,73.1,68.0,30.08,North,360,5.4,7.7,84,0.00,,,0.00,Rainwise IP-100,2013-07-12 18:22:00,
2013-07-12 14:27:00,72.8,67.5,30.08,NNW,337,1.9,6.3,84,0.00,,,0.00,Rainwise IP-100,2013-07-12 18:27:00,
2013-07-12 14:32:00,72.8,68.0,30.08,NE,45,1.6,6.5,85,0.00,,,0.00,Rainwise IP-100,2013-07-12 18:32:00,
2013-07-12 14:37:00,73.1,69.0,30.08,NE,45,0.0,8.2,86,0.00,,,0.00,Rainwise IP-100,2013-07-12 18:37:00,
2013-07-12 14:42:00,73.5,69.0,30.08,NE,45,2.8,8.6,85,0.00,,,0.00,Rainwise IP-100,2013-07-12 18:42:00,
2013-07-12 14:47:00,74.1,69.3,30.08,NNE,22,3.3,7.0,85,0.00,,,0.00,Rainwise IP-100,2013-07-12 18:47:00,
2013-07-12 14:52:00,74.7,69.7,30.08,WNW,292,5.1,8.2,84,0.00,,,0.00,Rainwise IP-100,2013-07-12 18:52:00,
2013-07-12 14:57:00,74.8,69.0,30.08,North,360,1.4,5.8,82,0.00,,,0.00,Rainwise IP-100,2013-07-12 18:57:00,
2013-07-12 15:02:00,74.9,69.3,30.08,NNE,22,2.6,7.5,82,0.00,,,0.00,Rainwise IP-100,2013-07-12 19:02:00,
2013-07-12 15:07:00,74.9,69.3,30.08,North,360,4.0,12.4,82,0.00,,,0.00,Rainwise IP-100,2013-07-12 19:07:00,
2013-07-12 15:12:00,74.6,69.0,30.08,North,360,2.8,11.9,82,0.00,,,0.00,Rainwise IP-100,2013-07-12 19:12:00,
2013-07-12 15:17:00,74.3,69.0,30.09,NNW,337,1.2,7.5,83,0.00,,,0.00,Rainwise IP-100,2013-07-12 19:17:00,
2013-07-12 15:22:00,74.1,69.0,30.08,ENE,67,4.2,9.6,83,0.00,,,0.00,Rainwise IP-100,2013-07-12 19:22:00,
2013-07-12 15:27:00,74.7,69.0,30.09,SSE,157,2.1,7.2,82,0.00,,,0.00,Rainwise IP-100,2013-07-12 19:27:00,
2013-07-12 15:32:00,75.7,69.7,30.09,NNW,337,6.1,7.5,82,0.00,,,0.00,Rainwise IP-100,2013-07-12 19:32:00,
2013-07-12 15:37:00,75.7,69.3,30.09,North,360,3.5,10.0,81,0.00,,,0.00,Rainwise IP-100,2013-07-12 19:37:00,
2013-07-12 15:42:00,75.4,69.3,30.08,NW,315,4.2,7.9,81,0.00,,,0.00,Rainwise IP-100,2013-07-12 19:42:00,
2013-07-12 15:47:00,75.5,69.3,30.08,NE,45,1.9,8.4,81,0.00,,,0.00,Rainwise IP-100,2013-07-12 19:47:00,
2013-07-12 15:52:00,75.1,69.0,30.08,NNE,22,4.0,8.6,81,0.00,,,0.00,Rainwise IP-100,2013-07-12 19:52:00,
2013-07-12 15:57:00,74.9,69.0,30.08,NNE,22,4.2,7.7,81,0.00,,,0.00,Rainwise IP-100,2013-07-12 19:57:00,
2013-07-12 16:02:00,75.2,69.0,30.08,ENE,67,1.4,9.6,81,0.00,,,0.00,Rainwise IP-100,2013-07-12 20:02:00,
2013-07-12 16:07:00,75.6,69.0,30.08,NE,45,6.5,10.3,80,0.00,,,0.00,Rainwise IP-100,2013-07-12 20:07:00,
2013-07-12 16:12:00,75.5,68.5,30.08,ENE,67,4.4,7.5,79,0.00,,,0.00,Rainwise IP-100,2013-07-12 20:12:00,
2013-07-12 16:17:00,75.5,68.5,30.08,NNE,22,6.5,9.1,79,0.00,,,0.00,Rainwise IP-100,2013-07-12 20:17:00,
2013-07-12 16:22:00,74.8,68.0,30.08,NNE,22,2.6,10.0,79,0.00,,,0.00,Rainwise IP-100,2013-07-12 20:22:00,
2013-07-12 16:27:00,74.3,68.0,30.08,North,360,4.0,7.2,80,0.00,,,0.00,Rainwise IP-100,2013-07-12 20:27:00,
2013-07-12 16:32:00,74.6,68.5,30.08,NNE,22,2.8,7.2,80,0.00,,,0.00,Rainwise IP-100,2013-07-12 20:32:00,
2013-07-12 16:37:00,74.6,68.5,30.08,ENE,67,4.4,8.6,80,0.00,,,0.00,Rainwise IP-100,2013-07-12 20:37:00,
2013-07-12 16:42:00,74.1,67.5,30.09,West,270,3.7,5.8,80,0.00,,,0.00,Rainwise IP-100,2013-07-12 20:42:00,
2013-07-12 16:47:00,73.3,66.7,30.08,ENE,67,1.9,9.6,80,0.00,,,0.00,Rainwise IP-100,2013-07-12 20:47:00,
2013-07-12 16:52:00,72.8,66.7,30.09,North,360,5.6,6.5,81,0.00,,,0.00,Rainwise IP-100,2013-07-12 20:52:00,
2013-07-12 16:57:00,72.7,66.7,30.09,NNE,22,4.2,7.7,81,0.00,,,0.00,Rainwise IP-100,2013-07-12 20:57:00,
2013-07-12 17:02:00,72.3,66.7,30.09,NNW,337,1.6,7.5,82,0.00,,,0.00,Rainwise IP-100,2013-07-12 21:02:00,
2013-07-12 17:07:00,72.1,66.7,30.09,ENE,67,0.0,7.7,83,0.00,,,0.00,Rainwise IP-100,2013-07-12 21:07:00,
2013-07-12 17:12:00,72.0,66.7,30.09,North,360,0.0,6.3,84,0.00,,,0.00,Rainwise IP-100,2013-07-12 21:12:00,
2013-07-12 17:17:00,71.7,66.7,30.09,ENE,67,2.8,5.6,85,0.00,,,0.00,Rainwise IP-100,2013-07-12 21:17:00,
2013-07-12 17:22:00,71.6,66.7,30.09,NNE,22,2.3,5.4,85,0.00,,,0.00,Rainwise IP-100,2013-07-12 21:22:00,
2013-07-12 17:27:00,71.5,66.7,30.09,NNE,22,1.6,6.8,85,0.00,,,0.00,Rainwise IP-100,2013-07-12 21:27:00,
2013-07-12 17:32:00,71.5,66.7,30.09,NNW,337,4.9,6.1,85,0.00,,,0.00,Rainwise IP-100,2013-07-12 21:32:00,
2013-07-12 17:37:00,71.5,67.0,30.09,WNW,292,1.2,5.4,86,0.00,,,0.00,Rainwise IP-100,2013-07-12 21:37:00,
2013-07-12 17:42:00,71.4,66.7,30.10,NNW,337,3.7,7.9,86,0.00,,,0.00,Rainwise IP-100,2013-07-12 21:42:00,
2013-07-12 17:47:00,71.2,66.7,30.10,NNE,22,0.0,5.6,86,0.00,,,0.00,Rainwise IP-100,2013-07-12 21:47:00,
2013-07-12 17:52:00,71.2,66.7,30.10,NNW,337,2.3,4.7,86,0.00,,,0.00,Rainwise IP-100,2013-07-12 21:52:00,
2013-07-12 17:58:00,71.0,66.7,30.09,NNE,22,0.0,5.8,87,0.00,,,0.00,Rainwise IP-100,2013-07-12 21:58:00,
2013-07-12 18:03:00,70.9,66.7,30.10,NW,315,6.8,6.8,87,0.00,,,0.00,Rainwise IP-100,2013-07-12 22:03:00,
2013-07-12 18:07:00,70.8,66.7,30.10,SSW,202,2.6,8.2,87,0.00,,,0.00,Rainwise IP-100,2013-07-12 22:07:00,
2013-07-12 18:12:00,70.5,66.3,30.09,West,270,1.2,7.5,87,0.00,,,0.00,Rainwise IP-100,2013-07-12 22:12:00,
2013-07-12 18:17:00,70.4,66.3,30.10,ENE,67,1.6,6.1,87,0.00,,,0.00,Rainwise IP-100,2013-07-12 22:17:00,
2013-07-12 18:22:00,70.4,66.3,30.10,North,360,0.0,6.1,87,0.00,,,0.00,Rainwise IP-100,2013-07-12 22:22:00,
2013-07-12 18:27:00,70.5,66.7,30.10,ENE,67,2.8,8.9,88,0.00,,,0.00,Rainwise IP-100,2013-07-12 22:27:00,
2013-07-12 18:33:00,70.5,66.7,30.10,North,360,2.3,5.4,88,0.00,,,0.00,Rainwise IP-100,2013-07-12 22:33:00,
2013-07-12 18:37:00,70.5,66.7,30.11,NE,45,2.8,5.8,88,0.00,,,0.00,Rainwise IP-100,2013-07-12 22:37:00,
2013-07-12 18:42:00,70.4,66.7,30.10,NNE,22,1.2,5.4,88,0.00,,,0.00,Rainwise IP-100,2013-07-12 22:42:00,
2013-07-12 18:48:00,70.2,66.3,30.10,SSE,157,1.4,3.5,88,0.00,,,0.00,Rainwise IP-100,2013-07-12 22:48:00,
2013-07-12 18:53:00,70.0,66.3,30.10,NNE,22,1.2,5.4,88,0.00,,,0.00,Rainwise IP-100,2013-07-12 22:53:00,
2013-07-12 18:58:00,69.9,66.3,30.11,North,360,2.3,4.4,88,0.00,,,0.00,Rainwise IP-100,2013-07-12 22:58:00,
2013-07-12 19:03:00,69.9,66.3,30.10,ENE,67,3.7,7.0,88,0.00,,,0.00,Rainwise IP-100,2013-07-12 23:03:00,
2013-07-12 19:08:00,69.9,66.3,30.11,NE,45,3.0,4.7,88,0.00,,,0.00,Rainwise IP-100,2013-07-12 23:08:00,
2013-07-12 19:13:00,69.8,66.0,30.11,NE,45,2.8,4.4,88,0.00,,,0.00,Rainwise IP-100,2013-07-12 23:13:00,
2013-07-12 19:18:00,69.7,66.0,30.12,SSE,157,0.0,7.0,88,0.00,,,0.00,Rainwise IP-100,2013-07-12 23:18:00,
2013-07-12 19:23:00,69.5,66.3,30.11,ENE,67,0.0,6.8,89,0.00,,,0.00,Rainwise IP-100,2013-07-12 23:23:00,
2013-07-12 19:28:00,69.5,66.3,30.12,NNE,22,0.0,6.5,89,0.00,,,0.00,Rainwise IP-100,2013-07-12 23:28:00,
2013-07-12 19:32:00,69.4,66.0,30.12,NNE,22,2.3,4.4,89,0.00,,,0.00,Rainwise IP-100,2013-07-12 23:32:00,
2013-07-12 19:37:00,69.3,66.0,30.13,NNW,337,0.0,6.5,89,0.00,,,0.00,Rainwise IP-100,2013-07-12 23:37:00,
2013-07-12 19:43:00,69.2,66.0,30.12,NE,45,0.0,3.5,89,0.00,,,0.00,Rainwise IP-100,2013-07-12 23:43:00,
2013-07-12 19:48:00,69.0,65.5,30.12,NNW,337,1.2,6.5,89,0.00,,,0.00,Rainwise IP-100,2013-07-12 23:48:00,
2013-07-12 19:53:00,68.8,65.5,30.12,NNE,22,2.1,5.4,89,0.00,,,0.00,Rainwise IP-100,2013-07-12 23:53:00,
2013-07-12 19:58:00,68.7,65.0,30.12,NE,45,1.2,4.9,89,0.00,,,0.00,Rainwise IP-100,2013-07-12 23:58:00,
2013-07-12 20:03:00,68.6,65.5,30.12,NNW,337,2.3,9.3,90,0.00,,,0.00,Rainwise IP-100,2013-07-13 00:03:00,
2013-07-12 20:08:00,68.5,65.5,30.12,NNW,337,3.5,4.2,90,0.00,,,0.00,Rainwise IP-100,2013-07-13 00:08:00,
2013-07-12 20:13:00,68.3,65.5,30.12,ENE,67,0.0,5.8,90,0.00,,,0.00,Rainwise IP-100,2013-07-13 00:13:00,
2013-07-12 20:18:00,68.2,65.5,30.12,ENE,67,0.0,3.0,91,0.00,,,0.00,Rainwise IP-100,2013-07-13 00:18:00,
2013-07-12 20:23:00,68.1,65.5,30.12,North,360,5.1,6.5,91,0.00,,,0.00,Rainwise IP-100,2013-07-13 00:23:00,
2013-07-12 20:28:00,68.1,65.5,30.13,NE,45,0.0,5.1,92,0.00,,,0.00,Rainwise IP-100,2013-07-13 00:28:00,
2013-07-12 20:33:00,68.0,65.5,30.13,WNW,292,3.0,3.7,92,0.00,,,0.00,Rainwise IP-100,2013-07-13 00:33:00,
2013-07-12 20:38:00,68.0,65.5,30.14,NNE,22,4.0,4.4,92,0.00,,,0.00,Rainwise IP-100,2013-07-13 00:38:00,
2013-07-12 20:43:00,67.9,65.5,30.13,ENE,67,1.2,4.4,92,0.00,,,0.00,Rainwise IP-100,2013-07-13 00:43:00,
2013-07-12 20:48:00,67.8,66.0,30.13,NNE,22,1.2,5.4,93,0.00,,,0.00,Rainwise IP-100,2013-07-13 00:48:00,
2013-07-12 20:53:00,67.6,65.5,30.13,NNE,22,0.0,4.0,93,0.00,,,0.00,Rainwise IP-100,2013-07-13 00:53:00,
2013-07-12 20:58:00,67.6,65.5,30.14,NW,315,1.2,4.0,93,0.00,,,0.00,Rainwise IP-100,2013-07-13 00:58:00,
2013-07-12 21:03:00,67.5,66.0,30.14,NNW,337,3.0,3.0,94,0.00,,,0.00,Rainwise IP-100,2013-07-13 01:03:00,
2013-07-12 21:08:00,67.4,66.0,30.14,NNE,22,1.6,4.2,94,0.00,,,0.00,Rainwise IP-100,2013-07-13 01:08:00,
2013-07-12 21:13:00,67.4,66.0,30.14,NNE,22,1.4,4.4,94,0.00,,,0.00,Rainwise IP-100,2013-07-13 01:13:00,
2013-07-12 21:18:00,67.3,66.0,30.14,North,360,1.4,7.0,94,0.00,,,0.00,Rainwise IP-100,2013-07-13 01:18:00,
2013-07-12 21:23:00,67.3,66.3,30.14,North,360,2.6,4.0,95,0.00,,,0.00,Rainwise IP-100,2013-07-13 01:23:00,
2013-07-12 21:28:00,67.4,66.3,30.14,NNW,337,1.9,3.5,95,0.00,,,0.00,Rainwise IP-100,2013-07-13 01:28:00,
2013-07-12 21:33:00,67.5,66.3,30.15,NNE,22,2.3,4.0,95,0.00,,,0.00,Rainwise IP-100,2013-07-13 01:33:00,
2013-07-12 21:38:00,67.5,66.3,30.14,North,360,3.0,4.2,95,0.00,,,0.00,Rainwise IP-100,2013-07-13 01:38:00,
2013-07-12 21:43:00,67.5,66.3,30.14,North,360,0.0,3.7,95,0.00,,,0.00,Rainwise IP-100,2013-07-13 01:43:00,
2013-07-12 21:48:00,67.5,66.3,30.15,NNW,337,1.6,4.4,95,0.00,,,0.00,Rainwise IP-100,2013-07-13 01:48:00,
2013-07-12 21:53:00,67.5,66.3,30.15,North,360,0.0,3.7,95,0.00,,,0.00,Rainwise IP-100,2013-07-13 01:53:00,
2013-07-12 21:58:00,67.5,66.3,30.15,NE,45,1.9,3.3,95,0.00,,,0.00,Rainwise IP-100,2013-07-13 01:58:00,
2013-07-12 22:03:00,67.5,66.3,30.16,WNW,292,0.0,5.6,95,0.00,,,0.00,Rainwise IP-100,2013-07-13 02:03:00,
2013-07-12 22:08:00,67.5,66.3,30.15,NNW,337,1.4,7.0,95,0.00,,,0.00,Rainwise IP-100,2013-07-13 02:08:00,
2013-07-12 22:13:00,67.5,66.3,30.15,NW,315,0.0,4.4,95,0.00,,,0.00,Rainwise IP-100,2013-07-13 02:13:00,
2013-07-12 22:18:00,67.5,66.3,30.15,NE,45,1.2,3.0,95,0.00,,,0.00,Rainwise IP-100,2013-07-13 02:18:00,
2013-07-12 22:23:00,67.5,66.3,30.15,North,360,0.0,2.6,96,0.00,,,0.00,Rainwise IP-100,2013-07-13 02:23:00,
2013-07-12 22:28:00,67.5,66.3,30.16,NNW,337,1.2,2.6,96,0.00,,,0.00,Rainwise IP-100,2013-07-13 02:28:00,
2013-07-12 22:33:00,67.5,66.3,30.16,SSE,157,0.0,3.5,96,0.00,,,0.00,Rainwise IP-100,2013-07-13 02:33:00,
2013-07-12 22:38:00,67.5,66.3,30.16,NNW,337,0.0,3.3,96,0.00,,,0.00,Rainwise IP-100,2013-07-13 02:38:00,
2013-07-12 22:43:00,67.4,66.3,30.15,NE,45,1.4,2.1,96,0.00,,,0.00,Rainwise IP-100,2013-07-13 02:43:00,
2013-07-12 22:48:00,67.5,66.3,30.16,WSW,247,0.0,2.1,96,0.00,,,0.00,Rainwise IP-100,2013-07-13 02:48:00,
2013-07-12 22:53:00,67.5,66.3,30.16,SSE,157,0.0,3.3,96,0.00,,,0.00,Rainwise IP-100,2013-07-13 02:53:00,
2013-07-12 22:58:00,67.5,66.7,30.16,North,360,3.0,5.1,97,0.00,,,0.00,Rainwise IP-100,2013-07-13 02:58:00,
2013-07-12 23:03:00,67.5,66.7,30.17,NNE,22,0.0,3.0,97,0.00,,,0.00,Rainwise IP-100,2013-07-13 03:03:00,
2013-07-12 23:08:00,67.6,66.7,30.16,North,360,0.0,2.8,97,0.00,,,0.00,Rainwise IP-100,2013-07-13 03:08:00,
2013-07-12 23:13:00,67.6,66.7,30.17,SSE,157,0.0,3.0,97,0.00,,,0.00,Rainwise IP-100,2013-07-13 03:13:00,
2013-07-12 23:18:00,67.6,66.7,30.16,NNW,337,1.2,3.5,97,0.00,,,0.00,Rainwise IP-100,2013-07-13 03:18:00,
2013-07-12 23:23:00,67.7,66.7,30.16,NNW,337,0.0,1.6,97,0.00,,,0.00,Rainwise IP-100,2013-07-13 03:23:00,
2013-07-12 23:28:00,67.7,66.7,30.17,NNE,22,1.4,2.6,97,0.00,,,0.00,Rainwise IP-100,2013-07-13 03:28:00,
2013-07-12 23:33:00,67.7,66.7,30.16,North,360,0.0,6.8,97,0.00,,,0.00,Rainwise IP-100,2013-07-13 03:33:00,
2013-07-12 23:38:00,67.8,67.0,30.16,NNE,22,0.0,3.7,97,0.00,,,0.00,Rainwise IP-100,2013-07-13 03:38:00,
2013-07-12 23:43:00,67.8,67.0,30.16,NNW,337,1.6,1.9,97,0.00,,,0.00,Rainwise IP-100,2013-07-13 03:43:00,
2013-07-12 23:48:00,67.8,67.5,30.16,NW,315,0.0,2.6,98,0.00,,,0.00,Rainwise IP-100,2013-07-13 03:48:00,
2013-07-12 23:53:00,67.9,67.5,30.16,NNW,337,1.2,1.9,98,0.00,,,0.00,Rainwise IP-100,2013-07-13 03:53:00,
2013-07-12 23:58:00,67.9,67.5,30.16,North,360,2.1,3.5,98,0.00,,,0.00,Rainwise IP-100,2013-07-13 03:58:00,